Terminal Aerodrome Forecast
Issued by NWS Bismarck, ND

Home | Current Version | Previous Version | Text Only | Print | Product List | Glossary On
Versions: 1 2 3 4 5 6 7 8 9 10 11 12 13 14 15 16
000
FTUS43 KBIS 230520
TAFBIS
TAF
KBIS 230520Z 2306/2406 17007KT P6SM SCT100
     FM231200 13008KT P6SM SCT035 OVC080
     FM231800 14012KT P6SM VCSH OVC025
     FM240000 13008KT P6SM -RA OVC025=

USA.gov is the U.S. government's official web portal to all federal, state and local government web resources and services.